Time;durP1;ratioP1;P1;durP2;ratioP2;P2;SDS_P1;SDS_P2;PMS_P1;PMS_P2;Temp;Humidity;BMP_temperature;BMP_pressure;BME280_temperature;BME280_humidity;BME280_pressure;Samples;Min_cycle;Max_cycle;Signal;HPM_P1;HPM_P2
2021/10/05 00:01:12;;;;;;;13.18;12.07;;;12.60;88.10;;;;;;5018650;29;20076;-69
2021/10/05 00:03:44;;;;;;;13.80;12.70;;;12.60;87.90;;;;;;5019856;29;20140;-69
2021/10/05 00:06:16;;;;;;;14.10;12.90;;;12.60;88.00;;;;;;5018181;29;20125;-70
2021/10/05 00:08:48;;;;;;;12.80;11.70;;;12.60;88.40;;;;;;5019068;29;20468;-68
2021/10/05 00:11:20;;;;;;;12.73;11.73;;;12.60;88.10;;;;;;5019396;29;20587;-69
2021/10/05 00:13:52;;;;;;;12.45;11.35;;;12.60;88.30;;;;;;5002179;29;20052;-69
2021/10/05 00:16:24;;;;;;;12.32;11.32;;;12.60;88.00;;;;;;5016811;29;20064;-71
2021/10/05 00:18:56;;;;;;;12.73;11.52;;;12.60;87.90;;;;;;5019308;29;20046;-69
2021/10/05 00:21:28;;;;;;;13.27;12.07;;;12.60;87.90;;;;;;5016036;29;20611;-70
2021/10/05 00:24:00;;;;;;;13.88;12.68;;;12.60;87.90;;;;;;5018679;29;20535;-70
2021/10/05 00:26:32;;;;;;;13.00;12.00;;;12.60;87.90;;;;;;5017273;29;20578;-70
2021/10/05 00:29:03;;;;;;;13.07;12.02;;;12.70;88.30;;;;;;5002709;29;20279;-70
2021/10/05 00:31:35;;;;;;;13.68;12.57;;;12.70;88.20;;;;;;5016453;29;20132;-69
2021/10/05 00:34:08;;;;;;;13.93;12.75;;;12.70;88.20;;;;;;5018206;29;20042;-70
2021/10/05 00:36:39;;;;;;;13.80;12.70;;;12.70;88.00;;;;;;5000528;29;20046;-70
2021/10/05 00:39:11;;;;;;;13.88;12.57;;;12.70;88.30;;;;;;5002324;29;20049;-70
2021/10/05 00:41:43;;;;;;;12.98;11.88;;;12.70;88.50;;;;;;5000466;29;20172;-70
2021/10/05 00:44:15;;;;;;;13.93;12.73;;;12.70;88.70;;;;;;5016904;29;20132;-70
2021/10/05 00:46:47;;;;;;;13.73;12.50;;;12.80;88.80;;;;;;5015677;29;20372;-70
2021/10/05 00:49:19;;;;;;;14.18;12.98;;;12.80;88.50;;;;;;5016816;29;20114;-69
2021/10/05 00:51:51;;;;;;;14.93;13.63;;;12.80;88.20;;;;;;5017335;29;20246;-69
2021/10/05 00:54:23;;;;;;;14.23;12.93;;;12.80;87.90;;;;;;5018342;29;20052;-70
2021/10/05 00:56:55;;;;;;;14.32;13.02;;;12.70;88.80;;;;;;5015900;29;20118;-69
2021/10/05 00:59:27;;;;;;;13.80;12.65;;;12.70;88.90;;;;;;5000864;29;20061;-69
2021/10/05 01:02:05;;;;;;;13.60;12.32;;;12.70;88.80;;;;;;5014224;29;20053;-69
2021/10/05 01:04:39;;;;;;;13.35;12.15;;;12.70;88.70;;;;;;5017715;29;20586;-71
2021/10/05 01:07:17;;;;;;;13.90;12.70;;;12.70;89.80;;;;;;5016755;29;20489;-70
2021/10/05 01:09:48;;;;;;;14.57;13.27;;;12.60;89.70;;;;;;5018527;29;20516;-71
2021/10/05 01:12:20;;;;;;;13.55;12.45;;;12.60;89.70;;;;;;5001654;29;20148;-69
2021/10/05 01:14:52;;;;;;;13.55;12.27;;;12.60;89.50;;;;;;4998652;29;20045;-70
2021/10/05 01:17:24;;;;;;;14.18;12.98;;;12.60;89.60;;;;;;5017664;29;20117;-70
2021/10/05 01:19:56;;;;;;;14.10;13.00;;;12.60;89.40;;;;;;5017210;29;20061;-70
2021/10/05 01:22:28;;;;;;;13.57;12.40;;;12.60;89.00;;;;;;4999743;29;20637;-70
2021/10/05 01:25:11;;;;;;;14.40;13.13;;;12.60;89.20;;;;;;5016515;29;20053;-70
2021/10/05 01:27:51;;;;;;;13.82;12.63;;;12.60;89.30;;;;;;5014928;29;20591;-71
2021/10/05 01:30:23;;;;;;;14.45;13.25;;;12.60;89.10;;;;;;5015251;29;20500;-69
2021/10/05 01:32:55;;;;;;;13.98;12.88;;;12.60;89.50;;;;;;5018244;29;20105;-70
2021/10/05 01:35:29;;;;;;;14.20;13.00;;;12.60;89.20;;;;;;5013352;29;20113;-70
2021/10/05 01:38:00;;;;;;;15.23;13.82;;;12.60;89.10;;;;;;5016633;29;20080;-72
2021/10/05 01:40:33;;;;;;;15.32;13.98;;;12.60;89.10;;;;;;5016852;29;20676;-71
2021/10/05 01:43:05;;;;;;;14.57;13.27;;;12.60;88.80;;;;;;4987301;29;20473;-70
2021/10/05 01:45:38;;;;;;;14.18;12.95;;;12.60;89.60;;;;;;5000529;29;20570;-70
2021/10/05 01:48:10;;;;;;;15.50;14.07;;;12.60;89.20;;;;;;5015692;29;20108;-71
2021/10/05 01:50:42;;;;;;;17.25;15.70;;;12.70;89.00;;;;;;5016054;29;20427;-70
2021/10/05 01:53:14;;;;;;;16.23;14.90;;;12.60;88.80;;;;;;5016614;29;20077;-71
2021/10/05 01:55:46;;;;;;;16.85;15.45;;;12.70;88.80;;;;;;5016789;29;20041;-71
2021/10/05 01:58:18;;;;;;;16.73;15.32;;;12.70;89.00;;;;;;5017794;29;20243;-70
2021/10/05 02:00:49;;;;;;;17.13;15.63;;;12.70;89.10;;;;;;4984926;29;20105;-69
2021/10/05 02:03:23;;;;;;;17.38;15.98;;;12.70;89.30;;;;;;5017173;29;20109;-70
2021/10/05 02:05:55;;;;;;;18.33;16.73;;;12.60;89.60;;;;;;5015410;29;20132;-70
2021/10/05 02:08:27;;;;;;;19.65;17.85;;;12.60;89.50;;;;;;5016074;29;20053;-69
2021/10/05 02:10:59;;;;;;;20.38;18.40;;;12.60;89.60;;;;;;5016303;29;20599;-70
2021/10/05 02:13:31;;;;;;;23.80;21.40;;;12.60;89.50;;;;;;5016245;29;20486;-70
2021/10/05 02:16:04;;;;;;;22.35;20.15;;;12.60;90.70;;;;;;5015719;29;20165;-70
2021/10/05 02:18:36;;;;;;;22.80;20.40;;;12.50;90.80;;;;;;5017112;29;20077;-71
2021/10/05 02:21:07;;;;;;;23.73;21.52;;;12.50;91.00;;;;;;5017025;29;20140;-70
2021/10/05 02:24:40;;;;;;;23.17;20.88;;;12.40;91.10;;;;;;5005598;29;20137;-69
2021/10/05 02:26:33;;;;;;;22.13;19.95;;;12.50;90.40;;;;;;5015465;29;20046;-68
2021/10/05 02:29:05;;;;;;;23.80;21.50;;;12.50;90.40;;;;;;5017290;29;20124;-69
2021/10/05 02:31:36;;;;;;;22.27;20.25;;;12.50;90.50;;;;;;5016011;29;20587;-68
2021/10/05 02:34:09;;;;;;;23.25;21.10;;;12.60;90.30;;;;;;5000677;29;20064;-68
2021/10/05 02:36:41;;;;;;;21.67;19.63;;;12.60;90.00;;;;;;5012630;29;20525;-68
2021/10/05 02:39:13;;;;;;;21.90;19.60;;;12.60;90.30;;;;;;5016403;29;20335;-68
2021/10/05 02:41:45;;;;;;;21.13;19.23;;;12.60;90.40;;;;;;5015825;29;20041;-68
2021/10/05 02:44:17;;;;;;;21.35;19.35;;;12.60;90.20;;;;;;4986548;29;20469;-69
2021/10/05 02:46:50;;;;;;;21.00;19.10;;;12.60;90.40;;;;;;5013698;29;20149;-68
2021/10/05 02:49:21;;;;;;;20.88;18.80;;;12.60;90.60;;;;;;5014895;29;20162;-69
2021/10/05 02:51:53;;;;;;;20.33;18.42;;;12.60;90.20;;;;;;4997067;29;20064;-69
2021/10/05 02:54:26;;;;;;;19.15;17.42;;;12.60;90.50;;;;;;5015122;29;20128;-72
2021/10/05 02:56:57;;;;;;;19.83;18.05;;;12.60;90.00;;;;;;5014734;29;20798;-69
2021/10/05 02:59:29;;;;;;;18.63;17.02;;;12.60;89.90;;;;;;5014326;29;20121;-69
2021/10/05 03:02:01;;;;;;;17.95;16.35;;;12.60;90.00;;;;;;4983401;29;20416;-69
2021/10/05 03:04:34;;;;;;;18.15;16.50;;;12.60;90.20;;;;;;5016620;29;20152;-71
2021/10/05 03:07:06;;;;;;;17.95;16.35;;;12.60;90.00;;;;;;5014843;29;20061;-70
2021/10/05 03:09:38;;;;;;;18.95;17.25;;;12.60;90.10;;;;;;5015767;29;20137;-70
2021/10/05 03:12:10;;;;;;;19.67;17.88;;;12.60;90.10;;;;;;5015145;29;20052;-69
2021/10/05 03:14:42;;;;;;;18.38;16.67;;;12.70;90.10;;;;;;5019906;29;20052;-69
2021/10/05 03:17:14;;;;;;;19.45;17.65;;;12.60;89.60;;;;;;5019374;29;20556;-68
2021/10/05 03:19:46;;;;;;;19.08;17.38;;;12.70;90.70;;;;;;5020085;29;20621;-69
2021/10/05 03:22:18;;;;;;;19.05;17.35;;;12.60;90.00;;;;;;5003596;29;20059;-69
2021/10/05 03:24:50;;;;;;;18.23;16.52;;;12.60;90.00;;;;;;5007903;29;20064;-68
2021/10/05 03:27:21;;;;;;;19.63;17.83;;;12.60;90.00;;;;;;5019144;29;20420;-69
2021/10/05 03:29:53;;;;;;;19.48;17.58;;;12.60;90.10;;;;;;5019615;29;20521;-68
2021/10/05 03:32:26;;;;;;;19.48;17.67;;;12.60;90.10;;;;;;5020512;29;20516;-69
2021/10/05 03:34:57;;;;;;;19.25;17.45;;;12.60;91.00;;;;;;5019169;29;20568;-70
2021/10/05 03:37:29;;;;;;;19.88;18.05;;;12.60;91.10;;;;;;5002269;29;20148;-69
2021/10/05 03:40:03;;;;;;;18.95;17.25;;;12.60;91.10;;;;;;5019837;29;20037;-69
2021/10/05 03:42:35;;;;;;;19.00;17.27;;;12.60;90.90;;;;;;5019336;29;20599;-69
2021/10/05 03:45:08;;;;;;;19.08;17.27;;;12.60;90.80;;;;;;5000704;29;20052;-70
2021/10/05 03:47:40;;;;;;;19.92;17.92;;;12.60;91.20;;;;;;5018409;29;20049;-69
2021/10/05 03:50:14;;;;;;;19.83;17.80;;;12.60;91.50;;;;;;5019052;29;20085;-68
2021/10/05 03:52:46;;;;;;;19.23;17.17;;;12.50;91.50;;;;;;5019298;29;20397;-69
2021/10/05 03:55:18;;;;;;;19.63;17.73;;;12.60;91.20;;;;;;5019247;29;20045;-69
2021/10/05 03:57:50;;;;;;;19.88;17.98;;;12.50;91.40;;;;;;5018935;29;20078;-68
2021/10/05 04:00:22;;;;;;;20.65;18.65;;;12.50;91.30;;;;;;4999468;29;20108;-69
2021/10/05 04:02:55;;;;;;;21.15;19.15;;;12.60;91.40;;;;;;5001415;29;20193;-69
2021/10/05 04:05:28;;;;;;;20.10;18.10;;;12.60;91.00;;;;;;5018474;29;20057;-71
2021/10/05 04:08:01;;;;;;;19.42;17.42;;;12.60;91.00;;;;;;5002218;29;20049;-69
2021/10/05 04:10:33;;;;;;;20.90;18.80;;;12.60;90.90;;;;;;5019156;29;20057;-68
2021/10/05 04:13:05;;;;;;;20.30;18.30;;;12.60;90.80;;;;;;5019795;29;20060;-69
2021/10/05 04:15:37;;;;;;;19.42;17.52;;;12.60;90.60;;;;;;5000201;29;20041;-69
2021/10/05 04:18:09;;;;;;;20.00;17.98;;;12.60;90.50;;;;;;5018185;29;20069;-69
2021/10/05 04:20:41;;;;;;;19.88;17.95;;;12.60;91.30;;;;;;5018636;29;20045;-68
2021/10/05 04:23:13;;;;;;;19.00;17.17;;;12.50;91.20;;;;;;5016409;29;20485;-69
2021/10/05 04:25:45;;;;;;;19.48;17.55;;;12.50;91.60;;;;;;5001144;29;20125;-68
2021/10/05 04:28:17;;;;;;;18.30;16.40;;;12.50;91.50;;;;;;5016833;29;20132;-69
2021/10/05 04:30:49;;;;;;;18.95;17.05;;;12.50;90.90;;;;;;5018623;29;20061;-68
2021/10/05 04:33:21;;;;;;;17.77;16.05;;;12.50;90.80;;;;;;5000399;29;20069;-69
2021/10/05 04:35:53;;;;;;;18.38;16.55;;;12.60;90.70;;;;;;5018574;29;20140;-69
2021/10/05 04:38:25;;;;;;;18.63;16.77;;;12.60;90.70;;;;;;5016807;29;20092;-68
2021/10/05 04:40:57;;;;;;;18.23;16.42;;;12.60;90.40;;;;;;4992625;29;20500;-69
2021/10/05 04:43:31;;;;;;;19.75;17.75;;;12.60;90.40;;;;;;5016384;29;20063;-69
2021/10/05 04:46:03;;;;;;;20.15;18.13;;;12.60;90.40;;;;;;5015089;29;20209;-69
2021/10/05 04:48:35;;;;;;;18.35;16.52;;;12.60;91.00;;;;;;5016435;29;20136;-69
2021/10/05 04:51:07;;;;;;;19.08;17.27;;;12.60;90.80;;;;;;5018084;29;20428;-69
2021/10/05 04:53:39;;;;;;;19.23;17.25;;;12.60;91.00;;;;;;5018290;29;20498;-69
2021/10/05 04:56:10;;;;;;;18.70;16.88;;;12.60;91.20;;;;;;5015980;29;20132;-68
2021/10/05 04:58:42;;;;;;;19.33;17.35;;;12.60;90.90;;;;;;5001801;29;20125;-71
2021/10/05 05:01:14;;;;;;;19.17;17.27;;;12.60;90.80;;;;;;5018453;29;20105;-69
2021/10/05 05:03:46;;;;;;;18.80;16.90;;;12.60;90.90;;;;;;4989772;29;20049;-70
2021/10/05 05:06:18;;;;;;;20.00;18.05;;;12.60;91.20;;;;;;4994978;29;20060;-70
2021/10/05 05:08:50;;;;;;;20.27;18.27;;;12.60;91.30;;;;;;5014011;29;20133;-69
2021/10/05 05:11:22;;;;;;;19.13;17.33;;;12.60;91.00;;;;;;5016631;29;20591;-69
2021/10/05 05:13:54;;;;;;;19.63;17.83;;;12.60;91.00;;;;;;5018916;29;20591;-70
2021/10/05 05:16:26;;;;;;;19.00;17.15;;;12.60;90.80;;;;;;5014758;29;20038;-69
2021/10/05 05:18:58;;;;;;;18.55;16.83;;;12.60;90.90;;;;;;5015459;29;20424;-69
2021/10/05 05:21:30;;;;;;;19.48;17.20;;;12.60;91.00;;;;;;5013169;29;20077;-69
2021/10/05 05:24:02;;;;;;;18.50;16.70;;;12.60;90.90;;;;;;5017124;29;20568;-69
2021/10/05 05:26:34;;;;;;;18.63;16.77;;;12.60;90.90;;;;;;5015353;29;20053;-68
2021/10/05 05:29:06;;;;;;;19.17;17.27;;;12.60;91.10;;;;;;5001482;29;20132;-69
2021/10/05 05:31:38;;;;;;;19.13;17.33;;;12.60;90.90;;;;;;5012442;29;20053;-69
2021/10/05 05:34:10;;;;;;;19.05;17.17;;;12.60;90.50;;;;;;5017345;29;20411;-69
2021/10/05 05:36:42;;;;;;;18.75;16.92;;;12.60;90.50;;;;;;5013549;29;20759;-70
2021/10/05 05:39:14;;;;;;;18.00;16.30;;;12.60;90.50;;;;;;5015188;29;20405;-68
2021/10/05 05:41:47;;;;;;;18.10;16.40;;;12.60;90.50;;;;;;5012718;29;20102;-69
2021/10/05 05:44:19;;;;;;;19.63;17.73;;;12.60;90.50;;;;;;5014035;29;20474;-69
2021/10/05 05:46:51;;;;;;;19.02;17.23;;;12.70;90.40;;;;;;5008934;29;20056;-68
2021/10/05 05:49:23;;;;;;;18.45;16.75;;;12.60;90.50;;;;;;5011758;29;20059;-68
2021/10/05 05:51:54;;;;;;;18.83;16.98;;;12.60;90.50;;;;;;5011973;29;20121;-67
2021/10/05 05:54:26;;;;;;;18.77;16.98;;;12.70;90.30;;;;;;5014972;29;20420;-67
2021/10/05 05:56:58;;;;;;;19.55;17.65;;;12.70;90.40;;;;;;5013328;29;20059;-67
2021/10/05 05:59:30;;;;;;;19.33;17.52;;;12.60;90.30;;;;;;5015932;29;20120;-67
2021/10/05 06:02:02;;;;;;;19.20;17.40;;;12.60;90.60;;;;;;4993976;29;20476;-68
2021/10/05 06:04:34;;;;;;;19.73;17.73;;;12.60;90.50;;;;;;5012709;29;20153;-68
2021/10/05 06:07:06;;;;;;;20.05;18.13;;;12.70;90.40;;;;;;4980926;29;20049;-67
2021/10/05 06:09:38;;;;;;;19.85;17.95;;;12.70;90.60;;;;;;5014551;29;20591;-68
2021/10/05 06:12:15;;;;;;;20.92;18.83;;;12.60;90.60;;;;;;5013863;29;20728;-67
2021/10/05 06:14:47;;;;;;;19.77;17.77;;;12.70;90.60;;;;;;5011589;29;20038;-67
2021/10/05 06:17:23;;;;;;;18.13;16.42;;;12.70;90.50;;;;;;5001801;29;20194;-68
2021/10/05 06:19:55;;;;;;;19.48;17.67;;;12.70;90.40;;;;;;5016008;29;20124;-67
2021/10/05 06:22:27;;;;;;;17.88;16.17;;;12.70;90.40;;;;;;5015591;29;20046;-68
2021/10/05 06:24:59;;;;;;;18.02;16.35;;;12.70;90.20;;;;;;5015799;29;20067;-68
2021/10/05 06:27:31;;;;;;;16.20;14.80;;;12.70;90.40;;;;;;5016421;29;20412;-68
2021/10/05 06:30:05;;;;;;;15.40;14.05;;;12.80;90.40;;;;;;5015488;29;20048;-70
2021/10/05 06:32:37;;;;;;;15.98;14.50;;;12.80;90.30;;;;;;5016328;29;20041;-67
2021/10/05 06:35:09;;;;;;;15.20;13.80;;;12.80;90.30;;;;;;5014222;29;20592;-67
2021/10/05 06:37:41;;;;;;;15.93;14.40;;;12.80;90.50;;;;;;4999943;29;20178;-67
2021/10/05 06:40:13;;;;;;;15.90;14.50;;;12.70;90.40;;;;;;5015566;29;20584;-67
2021/10/05 06:42:45;;;;;;;15.85;14.40;;;12.70;90.40;;;;;;5017279;29;20070;-68
2021/10/05 06:45:17;;;;;;;15.23;13.82;;;12.70;90.40;;;;;;5014771;29;20041;-67
2021/10/05 06:47:49;;;;;;;15.38;14.07;;;12.80;90.50;;;;;;5016594;29;20041;-68
2021/10/05 06:50:25;;;;;;;15.13;13.73;;;12.80;90.60;;;;;;5019204;29;20287;-69
2021/10/05 06:52:57;;;;;;;15.93;14.52;;;12.80;90.40;;;;;;5019503;29;20183;-67
2021/10/05 06:55:30;;;;;;;15.32;14.02;;;12.90;90.20;;;;;;5020238;29;20069;-67
2021/10/05 06:58:02;;;;;;;15.27;13.88;;;12.90;90.10;;;;;;5019284;29;20389;-68
2021/10/05 07:00:34;;;;;;;15.23;13.93;;;13.00;90.10;;;;;;5019323;29;20919;-68
2021/10/05 07:03:06;;;;;;;15.98;14.60;;;13.10;90.20;;;;;;5019913;29;20053;-68
2021/10/05 07:05:39;;;;;;;16.60;15.20;;;13.10;90.20;;;;;;5018921;29;20594;-66
2021/10/05 07:08:11;;;;;;;15.20;13.90;;;13.10;89.70;;;;;;5019618;29;20041;-67
2021/10/05 07:10:43;;;;;;;14.98;13.75;;;13.20;89.50;;;;;;5002795;29;20082;-67
2021/10/05 07:13:15;;;;;;;15.00;13.80;;;13.20;89.40;;;;;;5019851;29;20045;-67
2021/10/05 07:15:47;;;;;;;14.90;13.65;;;13.30;89.40;;;;;;5019397;29;20276;-66
2021/10/05 07:18:19;;;;;;;14.77;13.57;;;13.30;89.40;;;;;;5019603;29;21003;-68
2021/10/05 07:20:54;;;;;;;14.95;13.68;;;13.30;89.10;;;;;;5018246;29;20045;-66
2021/10/05 07:23:26;;;;;;;14.82;13.60;;;13.40;89.20;;;;;;5019171;29;20458;-66
2021/10/05 07:26:18;;;;;;;14.10;12.98;;;13.40;88.50;;;;;;5018875;29;20054;-67
2021/10/05 07:28:50;;;;;;;14.50;13.20;;;13.40;88.70;;;;;;5020649;29;20060;-67
2021/10/05 07:31:22;;;;;;;14.98;13.63;;;13.40;88.90;;;;;;5017769;29;20053;-69
2021/10/05 07:33:54;;;;;;;14.23;12.93;;;13.40;89.00;;;;;;5020160;29;20408;-69
2021/10/05 07:36:26;;;;;;;14.23;12.93;;;13.40;88.80;;;;;;5017881;29;20779;-66
2021/10/05 07:38:57;;;;;;;13.70;12.60;;;13.40;89.00;;;;;;5020532;29;20528;-67
2021/10/05 07:41:29;;;;;;;14.18;12.98;;;13.50;89.00;;;;;;5018273;29;20051;-68
2021/10/05 07:44:01;;;;;;;13.63;12.43;;;13.50;89.00;;;;;;5019484;29;20488;-67
2021/10/05 07:46:33;;;;;;;13.43;12.27;;;13.50;88.80;;;;;;5017726;29;20041;-67
2021/10/05 07:49:06;;;;;;;14.30;13.00;;;13.50;89.00;;;;;;5020061;29;20045;-67
2021/10/05 07:51:38;;;;;;;14.00;12.80;;;13.50;88.10;;;;;;5019515;29;20139;-67
2021/10/05 07:54:10;;;;;;;14.10;12.85;;;13.50;88.80;;;;;;5018701;29;20056;-67
2021/10/05 07:56:42;;;;;;;14.35;13.15;;;13.60;88.70;;;;;;5018616;29;20133;-66
2021/10/05 07:59:14;;;;;;;19.02;17.33;;;13.70;88.90;;;;;;5018929;29;20132;-67
2021/10/05 08:01:54;;;;;;;15.02;13.75;;;13.70;88.50;;;;;;5018802;29;20110;-67
2021/10/05 08:04:26;;;;;;;14.57;13.18;;;13.70;88.60;;;;;;5018114;29;20089;-67
2021/10/05 08:06:58;;;;;;;13.73;12.63;;;13.70;88.60;;;;;;5018757;29;20469;-67
2021/10/05 08:09:30;;;;;;;13.52;12.43;;;13.80;88.30;;;;;;5018706;29;20045;-68
2021/10/05 08:12:03;;;;;;;13.73;12.50;;;13.90;88.00;;;;;;5017635;29;20129;-67
2021/10/05 08:14:35;;;;;;;12.70;11.70;;;13.90;87.50;;;;;;5018804;29;20136;-68
2021/10/05 08:17:07;;;;;;;12.98;11.88;;;13.90;87.60;;;;;;5019068;29;20148;-67
2021/10/05 08:19:39;;;;;;;12.05;11.15;;;13.90;87.90;;;;;;4989957;29;20140;-67
2021/10/05 08:22:11;;;;;;;13.05;11.82;;;14.00;87.60;;;;;;5017694;29;20049;-68
2021/10/05 08:24:43;;;;;;;12.57;11.55;;;14.00;87.20;;;;;;5018885;29;20588;-68
2021/10/05 08:27:15;;;;;;;12.27;11.27;;;14.10;87.50;;;;;;5018673;29;20189;-67
2021/10/05 08:29:48;;;;;;;11.82;10.93;;;14.10;86.10;;;;;;5017785;29;20049;-69
2021/10/05 08:32:20;;;;;;;12.50;11.50;;;14.20;87.10;;;;;;5018860;29;20057;-68
2021/10/05 08:34:52;;;;;;;11.75;10.75;;;14.20;87.20;;;;;;5016529;29;20050;-67
2021/10/05 08:37:24;;;;;;;11.60;10.70;;;14.30;86.90;;;;;;5018478;29;20146;-67
2021/10/05 08:39:56;;;;;;;12.13;11.07;;;14.30;86.90;;;;;;5018392;29;20081;-67
2021/10/05 08:42:28;;;;;;;12.10;11.10;;;14.40;86.60;;;;;;5019187;29;20085;-67
2021/10/05 08:45:01;;;;;;;12.00;10.90;;;14.50;86.90;;;;;;5001070;29;20489;-67
2021/10/05 08:47:33;;;;;;;11.20;10.20;;;14.50;85.80;;;;;;5000124;29;20508;-69
2021/10/05 08:50:06;;;;;;;12.10;11.10;;;14.50;86.30;;;;;;5018135;29;20045;-67
2021/10/05 08:52:42;;;;;;;11.68;10.55;;;14.50;85.80;;;;;;5015532;29;20674;-67
2021/10/05 08:55:14;;;;;;;11.82;10.93;;;14.60;85.80;;;;;;5002594;29;20105;-67
2021/10/05 08:57:48;;;;;;;11.35;10.48;;;14.70;85.90;;;;;;5016765;29;20049;-67
2021/10/05 09:00:22;;;;;;;10.73;9.93;;;14.70;85.20;;;;;;5018146;29;20509;-67
2021/10/05 09:02:55;;;;;;;10.80;9.98;;;14.60;85.70;;;;;;5017576;29;20129;-68
2021/10/05 09:05:29;;;;;;;11.48;10.52;;;14.70;85.00;;;;;;5006597;29;20055;-66
2021/10/05 09:08:01;;;;;;;10.68;9.88;;;14.70;85.30;;;;;;5017780;29;20065;-67
2021/10/05 09:10:33;;;;;;;10.70;9.90;;;14.70;84.10;;;;;;5017246;29;20101;-68
2021/10/05 09:13:06;;;;;;;10.60;9.80;;;14.70;84.40;;;;;;5003031;29;20065;-67
2021/10/05 09:15:38;;;;;;;10.35;9.55;;;14.70;85.20;;;;;;5018796;29;20092;-67
2021/10/05 09:18:10;;;;;;;10.82;10.02;;;14.70;85.20;;;;;;5017595;29;20571;-67
2021/10/05 09:20:41;;;;;;;10.55;9.65;;;14.70;84.20;;;;;;5018076;29;20077;-67
2021/10/05 09:23:14;;;;;;;10.80;10.00;;;14.70;84.30;;;;;;5017805;29;20512;-67
2021/10/05 09:25:50;;;;;;;11.07;10.27;;;14.70;84.40;;;;;;5017725;29;20132;-66
2021/10/05 09:28:23;;;;;;;10.55;9.75;;;14.70;85.10;;;;;;5017181;29;20121;-67
2021/10/05 09:31:01;;;;;;;10.32;9.52;;;14.70;84.40;;;;;;5019048;29;20120;-66
2021/10/05 09:33:35;;;;;;;10.85;9.90;;;14.70;84.70;;;;;;5017062;29;20645;-67
2021/10/05 09:36:07;;;;;;;10.93;10.13;;;14.70;84.80;;;;;;5016370;29;20237;-67
2021/10/05 09:38:39;;;;;;;10.32;9.52;;;14.70;84.90;;;;;;5017380;29;20041;-68
2021/10/05 09:41:12;;;;;;;10.30;9.50;;;14.70;83.90;;;;;;5017194;29;20081;-68
2021/10/05 09:43:44;;;;;;;11.00;9.95;;;14.70;84.80;;;;;;5015901;29;20049;-67
2021/10/05 09:46:17;;;;;;;10.85;9.95;;;14.70;84.20;;;;;;5015414;29;20057;-67
2021/10/05 09:49:07;;;;;;;11.38;10.48;;;14.70;84.10;;;;;;5016235;29;20075;-67
2021/10/05 09:51:39;;;;;;;10.60;9.80;;;14.70;84.10;;;;;;5017111;29;20068;-66
2021/10/05 09:54:11;;;;;;;10.80;9.98;;;14.70;83.80;;;;;;5016221;29;20691;-67
2021/10/05 09:56:43;;;;;;;10.73;9.93;;;14.70;83.90;;;;;;5015564;29;20045;-67
2021/10/05 09:59:15;;;;;;;10.63;9.73;;;14.70;84.00;;;;;;5001934;29;20164;-67
2021/10/05 10:01:47;;;;;;;10.40;9.60;;;14.70;83.70;;;;;;5015055;29;20538;-66
2021/10/05 10:04:24;;;;;;;10.45;9.65;;;14.80;84.40;;;;;;5017377;29;20098;-69
2021/10/05 10:06:56;;;;;;;11.05;10.25;;;14.80;84.40;;;;;;5015960;29;20457;-67
2021/10/05 10:09:30;;;;;;;10.68;9.65;;;14.90;84.00;;;;;;5016002;29;20057;-67
2021/10/05 10:12:03;;;;;;;10.95;10.15;;;14.90;84.30;;;;;;5017469;29;20473;-67
2021/10/05 10:14:36;;;;;;;10.60;9.80;;;15.00;84.60;;;;;;5016073;29;20374;-66
2021/10/05 10:17:07;;;;;;;11.25;10.40;;;15.10;84.10;;;;;;5000350;29;20541;-67
2021/10/05 10:19:40;;;;;;;10.85;10.05;;;15.20;83.10;;;;;;5017439;29;20046;-66
2021/10/05 10:22:12;;;;;;;11.35;10.55;;;15.20;82.70;;;;;;4998131;29;20082;-67
2021/10/05 10:24:46;;;;;;;10.80;9.90;;;15.30;82.60;;;;;;5016460;29;20082;-67
2021/10/05 10:27:19;;;;;;;11.00;10.20;;;15.30;82.20;;;;;;4991352;29;20107;-68
2021/10/05 10:30:10;;;;;;;11.10;10.23;;;15.30;82.30;;;;;;5015280;29;20477;-69
2021/10/05 10:32:50;;;;;;;11.32;10.48;;;15.40;81.60;;;;;;5017729;29;20054;-68
2021/10/05 10:35:24;;;;;;;11.32;10.43;;;15.40;81.10;;;;;;5015852;29;20046;-67
2021/10/05 10:37:56;;;;;;;11.75;10.75;;;15.50;81.80;;;;;;5012693;29;20052;-68
2021/10/05 10:40:36;;;;;;;11.48;10.68;;;15.50;81.40;;;;;;5012243;29;20525;-69
2021/10/05 10:43:20;;;;;;;11.65;10.75;;;15.50;81.50;;;;;;4999241;29;20076;-67
2021/10/05 10:45:56;;;;;;;11.50;10.70;;;15.50;81.40;;;;;;5013445;29;20487;-68
2021/10/05 10:48:36;;;;;;;11.25;10.43;;;15.50;81.20;;;;;;5013553;29;20488;-67
2021/10/05 10:51:13;;;;;;;11.20;10.40;;;15.50;80.90;;;;;;5016897;29;20076;-67
2021/10/05 10:53:46;;;;;;;11.80;10.90;;;15.50;80.80;;;;;;5015910;29;20048;-67
2021/10/05 10:56:30;;;;;;;11.80;10.90;;;15.60;80.90;;;;;;5014304;29;20133;-67
2021/10/05 10:59:05;;;;;;;11.32;10.52;;;15.60;80.70;;;;;;5014196;29;20588;-68
2021/10/05 11:01:46;;;;;;;11.02;10.23;;;15.60;80.40;;;;;;5014437;29;20124;-67
2021/10/05 11:04:20;;;;;;;11.05;10.15;;;15.60;80.40;;;;;;5016175;29;20046;-67
2021/10/05 11:06:53;;;;;;;11.80;10.80;;;15.60;81.00;;;;;;5012573;29;20587;-66
2021/10/05 11:09:33;;;;;;;12.10;11.20;;;15.60;81.10;;;;;;5014784;29;20053;-66
2021/10/05 11:12:08;;;;;;;11.77;10.88;;;15.60;81.10;;;;;;5014084;29;20142;-69
2021/10/05 11:14:41;;;;;;;12.25;11.25;;;15.50;80.70;;;;;;5016067;29;20073;-66
2021/10/05 11:17:13;;;;;;;12.18;11.27;;;15.50;81.20;;;;;;5015147;29;20128;-67
2021/10/05 11:19:45;;;;;;;12.15;11.25;;;15.40;80.90;;;;;;5013971;29;20045;-67
2021/10/05 11:22:17;;;;;;;14.63;13.43;;;15.40;81.60;;;;;;5015664;29;20054;-66
2021/10/05 11:24:50;;;;;;;12.52;11.52;;;15.20;80.20;;;;;;4998898;29;20575;-66
2021/10/05 11:27:25;;;;;;;12.18;11.27;;;15.10;80.80;;;;;;5015416;29;20926;-66
2021/10/05 11:30:05;;;;;;;11.77;10.88;;;15.10;81.50;;;;;;5015065;29;20057;-67
2021/10/05 11:32:37;;;;;;;11.95;11.02;;;15.00;81.80;;;;;;5015919;29;20140;-67
2021/10/05 11:35:09;;;;;;;11.68;10.77;;;15.00;81.90;;;;;;5019266;29;20420;-67
2021/10/05 11:37:41;;;;;;;11.90;11.00;;;15.00;81.90;;;;;;5019802;29;20129;-67
2021/10/05 11:40:12;;;;;;;11.57;10.57;;;15.00;82.30;;;;;;5019424;29;20572;-69
2021/10/05 11:42:46;;;;;;;11.80;10.80;;;15.00;82.00;;;;;;5019341;29;20081;-68
2021/10/05 11:45:18;;;;;;;11.13;10.20;;;14.90;81.90;;;;;;5018061;29;20072;-67
2021/10/05 11:47:56;;;;;;;10.98;10.18;;;15.00;82.20;;;;;;5019440;29;20053;-67
2021/10/05 11:50:29;;;;;;;11.15;10.32;;;14.90;81.80;;;;;;5019161;29;20054;-67
2021/10/05 11:53:01;;;;;;;11.15;10.25;;;14.90;81.80;;;;;;5019934;29;20057;-68
2021/10/05 11:55:35;;;;;;;11.35;10.45;;;14.90;82.00;;;;;;5018531;29;20041;-68
2021/10/05 11:58:07;;;;;;;11.23;10.32;;;14.90;82.70;;;;;;5017848;29;20109;-66
2021/10/05 12:00:39;;;;;;;11.27;10.48;;;14.90;81.70;;;;;;5017865;29;20192;-67
2021/10/05 12:03:11;;;;;;;11.30;10.50;;;15.00;82.80;;;;;;5017787;29;20053;-67
2021/10/05 12:05:43;;;;;;;11.05;10.20;;;15.00;82.80;;;;;;5018313;29;20101;-66
2021/10/05 12:08:15;;;;;;;11.15;10.35;;;15.20;82.10;;;;;;4988692;29;20068;-67
2021/10/05 12:10:54;;;;;;;10.65;9.85;;;15.20;79.10;;;;;;5019255;29;20056;-67
2021/10/05 12:13:26;;;;;;;10.95;10.15;;;15.30;79.60;;;;;;5020434;29;20056;-68
2021/10/05 12:15:58;;;;;;;11.02;10.13;;;15.30;78.90;;;;;;5015879;29;20053;-67
2021/10/05 12:18:30;;;;;;;10.45;9.65;;;15.40;78.40;;;;;;5020810;29;20075;-67
2021/10/05 12:21:05;;;;;;;10.65;9.85;;;15.40;75.70;;;;;;5001247;29;20042;-67
2021/10/05 12:23:49;;;;;;;10.13;9.32;;;15.40;79.00;;;;;;5004674;29;20133;-66
2021/10/05 12:26:22;;;;;;;10.50;9.70;;;15.40;77.80;;;;;;5017617;29;20076;-67
2021/10/05 12:29:07;;;;;;;10.55;9.65;;;15.50;78.70;;;;;;5020214;29;20182;-68
2021/10/05 12:31:39;;;;;;;10.30;9.60;;;15.50;75.30;;;;;;5017264;29;20136;-67
2021/10/05 12:34:11;;;;;;;10.75;9.95;;;15.40;77.50;;;;;;5016249;29;20605;-67
2021/10/05 12:36:43;;;;;;;11.38;10.52;;;15.50;76.00;;;;;;5013419;29;20271;-67
2021/10/05 12:39:18;;;;;;;10.88;10.05;;;15.30;76.50;;;;;;5018865;29;20553;-67
2021/10/05 12:41:58;;;;;;;10.40;9.60;;;15.30;76.40;;;;;;5016911;29;20073;-67
2021/10/05 12:44:36;;;;;;;;;;;15.30;77.30;;;;;;5018251;29;20053;-67
2021/10/05 12:47:08;;;;;;;11.10;10.20;;;15.20;75.00;;;;;;5016617;29;20866;-67
2021/10/05 12:49:51;;;;;;;11.20;10.30;;;15.20;76.80;;;;;;5019518;29;20137;-67
2021/10/05 12:52:24;;;;;;;10.90;10.10;;;15.10;77.50;;;;;;5019136;29;20054;-67
2021/10/05 12:54:56;;;;;;;10.90;10.10;;;15.20;78.10;;;;;;5017573;29;20046;-67
2021/10/05 12:57:29;;;;;;;10.90;10.10;;;15.20;78.60;;;;;;5016590;29;20049;-67